sensor_id;sensor_type;location;lat;lon;timestamp;pressure;altitude;pressure_sealevel;temperature;humidity
23016;BME280;11674;52.428;13.584;2022-08-21T00:00:34;101231.78;;;21.88;86.65
23016;BME280;11674;52.428;13.584;2022-08-21T00:03:07;101236.25;;;21.89;86.43
23016;BME280;11674;52.428;13.584;2022-08-21T00:05:48;101238.22;;;21.88;86.59
23016;BME280;11674;52.428;13.584;2022-08-21T00:08:20;101234.25;;;21.89;86.82
23016;BME280;11674;52.428;13.584;2022-08-21T00:10:52;101237.44;;;21.88;86.44
23016;BME280;11674;52.428;13.584;2022-08-21T00:13:24;101235.28;;;21.85;86.56
23016;BME280;11674;52.428;13.584;2022-08-21T00:15:56;101229.19;;;21.83;86.17
23016;BME280;11674;52.428;13.584;2022-08-21T00:18:28;101226.72;;;21.81;86.34
23016;BME280;11674;52.428;13.584;2022-08-21T00:21:00;101218.56;;;21.80;86.37
23016;BME280;11674;52.428;13.584;2022-08-21T00:23:34;101218.47;;;21.76;86.55
23016;BME280;11674;52.428;13.584;2022-08-21T00:26:06;101226.84;;;21.73;86.47
23016;BME280;11674;52.428;13.584;2022-08-21T00:28:31;101217.06;;;21.70;86.25
23016;BME280;11674;52.428;13.584;2022-08-21T00:31:04;101232.72;;;21.68;86.27
23016;BME280;11674;52.428;13.584;2022-08-21T00:33:36;101225.75;;;21.65;86.15
23016;BME280;11674;52.428;13.584;2022-08-21T00:36:08;101231.75;;;21.64;86.34
23016;BME280;11674;52.428;13.584;2022-08-21T00:38:40;101230.94;;;21.63;86.03
23016;BME280;11674;52.428;13.584;2022-08-21T00:41:12;101228.81;;;21.60;86.40
23016;BME280;11674;52.428;13.584;2022-08-21T00:43:44;101225.88;;;21.57;86.38
23016;BME280;11674;52.428;13.584;2022-08-21T00:46:16;101232.69;;;21.56;86.22
23016;BME280;11674;52.428;13.584;2022-08-21T00:48:48;101231.06;;;21.55;86.65
23016;BME280;11674;52.428;13.584;2022-08-21T00:51:25;101228.22;;;21.55;86.38
23016;BME280;11674;52.428;13.584;2022-08-21T00:53:59;101229.38;;;21.54;86.61
23016;BME280;11674;52.428;13.584;2022-08-21T00:56:32;101237.84;;;21.54;86.70
23016;BME280;11674;52.428;13.584;2022-08-21T00:59:05;101230.56;;;21.53;86.42
23016;BME280;11674;52.428;13.584;2022-08-21T01:01:37;101235.41;;;21.52;86.70
23016;BME280;11674;52.428;13.584;2022-08-21T01:04:09;101230.91;;;21.51;86.53
23016;BME280;11674;52.428;13.584;2022-08-21T01:06:34;101238.56;;;21.51;86.38
23016;BME280;11674;52.428;13.584;2022-08-21T01:09:06;101236.56;;;21.51;86.47
23016;BME280;11674;52.428;13.584;2022-08-21T01:11:39;101232.44;;;21.49;86.35
23016;BME280;11674;52.428;13.584;2022-08-21T01:14:04;101239.75;;;21.50;86.47
23016;BME280;11674;52.428;13.584;2022-08-21T01:16:38;101238.09;;;21.49;86.46
23016;BME280;11674;52.428;13.584;2022-08-21T01:19:11;101240.91;;;21.49;86.38
23016;BME280;11674;52.428;13.584;2022-08-21T01:21:37;101250.56;;;21.48;86.37
23016;BME280;11674;52.428;13.584;2022-08-21T01:24:09;101245.25;;;21.46;86.38
23016;BME280;11674;52.428;13.584;2022-08-21T01:26:42;101243.28;;;21.47;86.56
23016;BME280;11674;52.428;13.584;2022-08-21T01:29:36;101245.25;;;21.46;86.61
23016;BME280;11674;52.428;13.584;2022-08-21T01:32:13;101248.06;;;21.46;86.13
23016;BME280;11674;52.428;13.584;2022-08-21T01:34:47;101247.28;;;21.46;86.22
23016;BME280;11674;52.428;13.584;2022-08-21T01:37:21;101251.28;;;21.45;86.42
23016;BME280;11674;52.428;13.584;2022-08-21T01:39:53;101244.34;;;21.42;86.33
23016;BME280;11674;52.428;13.584;2022-08-21T01:42:25;101243.03;;;21.40;86.19
23016;BME280;11674;52.428;13.584;2022-08-21T01:44:57;101244.56;;;21.37;86.47
23016;BME280;11674;52.428;13.584;2022-08-21T01:47:29;101245.38;;;21.38;86.12
23016;BME280;11674;52.428;13.584;2022-08-21T01:50:02;101241.25;;;21.35;86.19
23016;BME280;11674;52.428;13.584;2022-08-21T01:52:35;101240.44;;;21.35;85.96
23016;BME280;11674;52.428;13.584;2022-08-21T01:55:08;101230.31;;;21.34;86.00
23016;BME280;11674;52.428;13.584;2022-08-21T01:57:41;101238.78;;;21.34;86.38
23016;BME280;11674;52.428;13.584;2022-08-21T02:00:16;101234.69;;;21.31;86.27
23016;BME280;11674;52.428;13.584;2022-08-21T02:02:49;101235.03;;;21.30;85.96
23016;BME280;11674;52.428;13.584;2022-08-21T02:05:22;101232.53;;;21.28;86.29
23016;BME280;11674;52.428;13.584;2022-08-21T02:07:55;101236.88;;;21.26;85.99
23016;BME280;11674;52.428;13.584;2022-08-21T02:10:29;101235.59;;;21.23;85.86
23016;BME280;11674;52.428;13.584;2022-08-21T02:13:02;101234.63;;;21.19;85.82
23016;BME280;11674;52.428;13.584;2022-08-21T02:15:34;101243.47;;;21.18;85.99
23016;BME280;11674;52.428;13.584;2022-08-21T02:18:06;101242.16;;;21.15;85.70
23016;BME280;11674;52.428;13.584;2022-08-21T02:20:42;101237.22;;;21.12;85.70
23016;BME280;11674;52.428;13.584;2022-08-21T02:23:14;101235.09;;;21.09;85.93
23016;BME280;11674;52.428;13.584;2022-08-21T02:25:47;101238.28;;;21.08;86.08
23016;BME280;11674;52.428;13.584;2022-08-21T02:28:19;101249.06;;;21.06;85.94
23016;BME280;11674;52.428;13.584;2022-08-21T02:30:51;101243.28;;;21.02;85.89
23016;BME280;11674;52.428;13.584;2022-08-21T02:33:23;101242.34;;;20.98;85.66
23016;BME280;11674;52.428;13.584;2022-08-21T02:35:55;101242.22;;;20.95;85.85
23016;BME280;11674;52.428;13.584;2022-08-21T02:38:30;101227.19;;;20.91;85.60
23016;BME280;11674;52.428;13.584;2022-08-21T02:41:02;101239.94;;;20.88;86.04
23016;BME280;11674;52.428;13.584;2022-08-21T02:43:34;101236.97;;;20.85;85.67
23016;BME280;11674;52.428;13.584;2022-08-21T02:46:08;101239.34;;;20.83;85.62
23016;BME280;11674;52.428;13.584;2022-08-21T02:48:40;101241.19;;;20.79;85.81
23016;BME280;11674;52.428;13.584;2022-08-21T02:51:15;101236.72;;;20.78;85.94
23016;BME280;11674;52.428;13.584;2022-08-21T02:53:48;101246.72;;;20.75;85.85
23016;BME280;11674;52.428;13.584;2022-08-21T02:56:21;101245.41;;;20.73;85.89
23016;BME280;11674;52.428;13.584;2022-08-21T02:58:53;101238.47;;;20.70;85.59
23016;BME280;11674;52.428;13.584;2022-08-21T03:01:26;101245.97;;;20.66;86.01
23016;BME280;11674;52.428;13.584;2022-08-21T03:03:58;101241.88;;;20.64;85.66
23016;BME280;11674;52.428;13.584;2022-08-21T03:06:30;101242.53;;;20.61;85.67
23016;BME280;11674;52.428;13.584;2022-08-21T03:09:02;101244.88;;;20.59;85.98
23016;BME280;11674;52.428;13.584;2022-08-21T03:11:34;101248.84;;;20.58;85.86
23016;BME280;11674;52.428;13.584;2022-08-21T03:14:06;101242.75;;;20.56;85.72
23016;BME280;11674;52.428;13.584;2022-08-21T03:16:38;101243.09;;;20.54;85.90
23016;BME280;11674;52.428;13.584;2022-08-21T03:19:10;101238.97;;;20.52;85.67
23016;BME280;11674;52.428;13.584;2022-08-21T03:21:42;101234.50;;;20.51;85.91
23016;BME280;11674;52.428;13.584;2022-08-21T03:24:14;101231.56;;;20.47;85.67
23016;BME280;11674;52.428;13.584;2022-08-21T03:26:46;101242.00;;;20.47;85.86
23016;BME280;11674;52.428;13.584;2022-08-21T03:29:18;101237.53;;;20.46;85.64
23016;BME280;11674;52.428;13.584;2022-08-21T03:31:50;101228.09;;;20.42;86.10
23016;BME280;11674;52.428;13.584;2022-08-21T03:34:22;101230.44;;;20.40;86.12
23016;BME280;11674;52.428;13.584;2022-08-21T03:36:54;101229.16;;;20.37;85.82
23016;BME280;11674;52.428;13.584;2022-08-21T03:39:26;101236.31;;;20.35;85.71
23016;BME280;11674;52.428;13.584;2022-08-21T03:42:05;101231.38;;;20.32;85.99
23016;BME280;11674;52.428;13.584;2022-08-21T03:44:37;101236.84;;;20.28;85.94
23016;BME280;11674;52.428;13.584;2022-08-21T03:47:09;101237.53;;;20.25;86.05
23016;BME280;11674;52.428;13.584;2022-08-21T03:49:41;101248.31;;;20.23;85.62
23016;BME280;11674;52.428;13.584;2022-08-21T03:52:13;101241.03;;;20.22;86.06
23016;BME280;11674;52.428;13.584;2022-08-21T03:54:45;101247.00;;;20.21;85.59
23016;BME280;11674;52.428;13.584;2022-08-21T03:57:17;101249.34;;;20.19;86.02
23016;BME280;11674;52.428;13.584;2022-08-21T03:59:49;101242.75;;;20.15;85.61
23016;BME280;11674;52.428;13.584;2022-08-21T04:02:21;101245.09;;;20.13;85.85
23016;BME280;11674;52.428;13.584;2022-08-21T04:04:53;101254.72;;;20.12;85.88
23016;BME280;11674;52.428;13.584;2022-08-21T04:07:25;101247.44;;;20.11;85.60
23016;BME280;11674;52.428;13.584;2022-08-21T04:09:57;101254.22;;;20.10;85.76
23016;BME280;11674;52.428;13.584;2022-08-21T04:12:29;101257.41;;;20.08;85.90
23016;BME280;11674;52.428;13.584;2022-08-21T04:15:01;101263.38;;;20.07;85.73
23016;BME280;11674;52.428;13.584;2022-08-21T04:17:33;101261.38;;;20.07;85.56
23016;BME280;11674;52.428;13.584;2022-08-21T04:20:05;101256.88;;;20.06;85.69
23016;BME280;11674;52.428;13.584;2022-08-21T04:22:37;101255.56;;;20.04;85.92
23016;BME280;11674;52.428;13.584;2022-08-21T04:25:10;101259.56;;;20.03;85.54
23016;BME280;11674;52.428;13.584;2022-08-21T04:27:42;101259.88;;;20.01;85.67
23016;BME280;11674;52.428;13.584;2022-08-21T04:30:15;101255.56;;;20.04;85.78
23016;BME280;11674;52.428;13.584;2022-08-21T04:32:49;101253.06;;;20.02;85.94
23016;BME280;11674;52.428;13.584;2022-08-21T04:35:22;101256.72;;;20.03;85.98
23016;BME280;11674;52.428;13.584;2022-08-21T04:37:54;101257.91;;;20.02;85.97
23016;BME280;11674;52.428;13.584;2022-08-21T04:40:27;101268.84;;;20.03;85.75
23016;BME280;11674;52.428;13.584;2022-08-21T04:43:05;101263.22;;;20.03;85.66
23016;BME280;11674;52.428;13.584;2022-08-21T04:45:44;101268.00;;;20.03;85.83
23016;BME280;11674;52.428;13.584;2022-08-21T04:48:19;101259.56;;;20.03;85.67
23016;BME280;11674;52.428;13.584;2022-08-21T04:50:58;101258.72;;;20.02;85.70
23016;BME280;11674;52.428;13.584;2022-08-21T04:53:36;101253.91;;;20.03;85.98
23016;BME280;11674;52.428;13.584;2022-08-21T04:58:55;101264.19;;;20.07;85.56
23016;BME280;11674;52.428;13.584;2022-08-21T05:01:29;101269.47;;;20.09;85.96
23016;BME280;11674;52.428;13.584;2022-08-21T05:04:04;101271.97;;;20.10;85.77
23016;BME280;11674;52.428;13.584;2022-08-21T05:06:40;101266.00;;;20.12;85.85
23016;BME280;11674;52.428;13.584;2022-08-21T05:09:15;101262.00;;;20.13;85.83
23016;BME280;11674;52.428;13.584;2022-08-21T05:11:48;101261.66;;;20.14;85.79
23016;BME280;11674;52.428;13.584;2022-08-21T05:14:20;101268.09;;;20.15;85.81
23016;BME280;11674;52.428;13.584;2022-08-21T05:16:52;101269.78;;;20.16;85.49
23016;BME280;11674;52.428;13.584;2022-08-21T05:19:24;101278.72;;;20.18;85.35
23016;BME280;11674;52.428;13.584;2022-08-21T05:21:56;101276.38;;;20.20;85.72
23016;BME280;11674;52.428;13.584;2022-08-21T05:24:28;101286.00;;;20.19;85.49
23016;BME280;11674;52.428;13.584;2022-08-21T05:27:00;101283.16;;;20.19;85.35
23016;BME280;11674;52.428;13.584;2022-08-21T05:29:32;101283.31;;;20.22;85.84
23016;BME280;11674;52.428;13.584;2022-08-21T05:32:12;101282.31;;;20.27;85.66
23016;BME280;11674;52.428;13.584;2022-08-21T05:34:44;101279.81;;;20.25;85.46
23016;BME280;11674;52.428;13.584;2022-08-21T05:37:16;101280.63;;;20.26;85.56
23016;BME280;11674;52.428;13.584;2022-08-21T05:39:48;101280.63;;;20.26;85.37
23016;BME280;11674;52.428;13.584;2022-08-21T05:42:20;101282.31;;;20.27;85.73
23016;BME280;11674;52.428;13.584;2022-08-21T05:44:52;101282.78;;;20.29;85.63
23016;BME280;11674;52.428;13.584;2022-08-21T05:47:24;101280.44;;;20.31;85.46
23016;BME280;11674;52.428;13.584;2022-08-21T05:49:56;101283.75;;;20.33;85.33
23016;BME280;11674;52.428;13.584;2022-08-21T05:52:28;101280.94;;;20.33;85.24
23016;BME280;11674;52.428;13.584;2022-08-21T05:55:00;101280.22;;;20.36;85.44
23016;BME280;11674;52.428;13.584;2022-08-21T05:57:25;101281.88;;;20.37;85.64
23016;BME280;11674;52.428;13.584;2022-08-21T05:59:57;101288.81;;;20.39;85.33
23016;BME280;11674;52.428;13.584;2022-08-21T06:02:39;101286.97;;;20.43;85.95
23016;BME280;11674;52.428;13.584;2022-08-21T06:05:11;101284.66;;;20.45;85.92
23016;BME280;11674;52.428;13.584;2022-08-21T06:07:43;101291.59;;;20.48;85.79
23016;BME280;11674;52.428;13.584;2022-08-21T06:10:15;101294.88;;;20.50;85.92
23016;BME280;11674;52.428;13.584;2022-08-21T06:12:52;101288.91;;;20.51;85.76
23016;BME280;11674;52.428;13.584;2022-08-21T06:15:25;101298.69;;;20.54;85.97
23016;BME280;11674;52.428;13.584;2022-08-21T06:17:57;101296.78;;;20.58;86.01
23016;BME280;11674;52.428;13.584;2022-08-21T06:20:29;101301.09;;;20.64;86.17
23016;BME280;11674;52.428;13.584;2022-08-21T06:23:01;101289.56;;;20.69;86.14
23016;BME280;11674;52.428;13.584;2022-08-21T06:25:33;101294.66;;;20.75;86.13
23016;BME280;11674;52.428;13.584;2022-08-21T06:28:09;101299.28;;;20.80;85.88
23016;BME280;11674;52.428;13.584;2022-08-21T06:30:41;101300.22;;;20.84;85.74
23016;BME280;11674;52.428;13.584;2022-08-21T06:33:13;101301.53;;;20.86;85.88
23016;BME280;11674;52.428;13.584;2022-08-21T06:35:45;101307.66;;;20.88;85.83
23016;BME280;11674;52.428;13.584;2022-08-21T06:38:17;101305.81;;;20.92;85.91
23016;BME280;11674;52.428;13.584;2022-08-21T06:40:49;101305.59;;;20.97;85.71
23016;BME280;11674;52.428;13.584;2022-08-21T06:43:21;101305.38;;;21.02;85.56
23016;BME280;11674;52.428;13.584;2022-08-21T06:45:53;101306.34;;;21.06;85.35
23016;BME280;11674;52.428;13.584;2022-08-21T06:48:25;101300.81;;;21.10;85.38
23016;BME280;11674;52.428;13.584;2022-08-21T06:50:59;101301.06;;;21.17;85.27
23016;BME280;11674;52.428;13.584;2022-08-21T06:53:31;101298.53;;;21.24;85.36
23016;BME280;11674;52.428;13.584;2022-08-21T06:56:03;101299.50;;;21.28;85.41
23016;BME280;11674;52.428;13.584;2022-08-21T06:58:35;101302.69;;;21.38;85.26
23016;BME280;11674;52.428;13.584;2022-08-21T07:01:07;101298.56;;;21.48;85.19
23016;BME280;11674;52.428;13.584;2022-08-21T07:03:41;101292.47;;;21.58;84.96
23016;BME280;11674;52.428;13.584;2022-08-21T07:06:13;101298.72;;;21.63;85.08
23016;BME280;11674;52.428;13.584;2022-08-21T07:08:45;101301.34;;;21.68;85.11
23016;BME280;11674;52.428;13.584;2022-08-21T07:11:19;101297.94;;;21.75;84.80
23016;BME280;11674;52.428;13.584;2022-08-21T07:13:52;101297.94;;;21.75;84.62
23016;BME280;11674;52.428;13.584;2022-08-21T07:16:24;101286.63;;;21.75;84.62
23016;BME280;11674;52.428;13.584;2022-08-21T07:18:56;101290.28;;;21.75;84.53
23016;BME280;11674;52.428;13.584;2022-08-21T07:21:28;101297.22;;;21.78;84.48
23016;BME280;11674;52.428;13.584;2022-08-21T07:24:00;101295.72;;;21.80;84.10
23016;BME280;11674;52.428;13.584;2022-08-21T07:26:32;101295.34;;;21.82;83.86
23016;BME280;11674;52.428;13.584;2022-08-21T07:29:04;101290.06;;;21.80;83.92
23016;BME280;11674;52.428;13.584;2022-08-21T07:31:36;101288.53;;;21.83;84.04
23016;BME280;11674;52.428;13.584;2022-08-21T07:34:08;101276.03;;;21.84;84.11
23016;BME280;11674;52.428;13.584;2022-08-21T07:36:40;101274.41;;;21.83;83.99
23016;BME280;11674;52.428;13.584;2022-08-21T07:39:12;101277.56;;;21.81;83.68
23016;BME280;11674;52.428;13.584;2022-08-21T07:41:44;101278.88;;;21.84;83.90
23016;BME280;11674;52.428;13.584;2022-08-21T07:44:16;101281.47;;;21.89;83.97
23016;BME280;11674;52.428;13.584;2022-08-21T07:46:48;101288.50;;;21.95;83.95
23016;BME280;11674;52.428;13.584;2022-08-21T07:49:20;101295.81;;;21.96;83.60
23016;BME280;11674;52.428;13.584;2022-08-21T07:51:52;101285.22;;;22.05;83.93
23016;BME280;11674;52.428;13.584;2022-08-21T07:54:24;101280.97;;;22.11;83.93
23016;BME280;11674;52.428;13.584;2022-08-21T07:56:56;101279.09;;;22.15;83.66
23016;BME280;11674;52.428;13.584;2022-08-21T07:59:28;101287.66;;;22.18;83.85
23016;BME280;11674;52.428;13.584;2022-08-21T08:02:00;101287.09;;;22.25;83.75
23016;BME280;11674;52.428;13.584;2022-08-21T08:04:32;101290.13;;;22.32;83.83
23016;BME280;11674;52.428;13.584;2022-08-21T08:07:04;101287.75;;;22.34;83.44
23016;BME280;11674;52.428;13.584;2022-08-21T08:09:36;101283.38;;;22.36;83.68
23016;BME280;11674;52.428;13.584;2022-08-21T08:12:08;101287.16;;;22.40;83.32
23016;BME280;11674;52.428;13.584;2022-08-21T08:14:40;101281.16;;;22.42;83.40
23016;BME280;11674;52.428;13.584;2022-08-21T08:17:12;101280.09;;;22.46;83.37
23016;BME280;11674;52.428;13.584;2022-08-21T08:19:44;101284.47;;;22.56;83.61
23016;BME280;11674;52.428;13.584;2022-08-21T08:22:19;101283.38;;;22.60;83.10
23016;BME280;11674;52.428;13.584;2022-08-21T08:24:51;101286.66;;;22.62;83.39
23016;BME280;11674;52.428;13.584;2022-08-21T08:27:23;101285.22;;;22.68;83.42
23016;BME280;11674;52.428;13.584;2022-08-21T08:29:55;101287.69;;;22.70;83.23
23016;BME280;11674;52.428;13.584;2022-08-21T08:32:27;101289.34;;;22.71;82.75
23016;BME280;11674;52.428;13.584;2022-08-21T08:34:59;101285.13;;;22.65;82.45
23016;BME280;11674;52.428;13.584;2022-08-21T08:37:32;101281.47;;;22.64;81.90
23016;BME280;11674;52.428;13.584;2022-08-21T08:40:05;101289.84;;;22.61;82.34
23016;BME280;11674;52.428;13.584;2022-08-21T08:42:37;101285.38;;;22.60;82.01
23016;BME280;11674;52.428;13.584;2022-08-21T08:45:12;101284.06;;;22.57;81.95
23016;BME280;11674;52.428;13.584;2022-08-21T08:47:44;101281.72;;;22.59;82.25
23016;BME280;11674;52.428;13.584;2022-08-21T08:50:21;101284.41;;;22.68;82.31
23016;BME280;11674;52.428;13.584;2022-08-21T08:53:03;101278.59;;;22.76;82.43
23016;BME280;11674;52.428;13.584;2022-08-21T08:55:39;101274.69;;;22.81;82.03
23016;BME280;11674;52.428;13.584;2022-08-21T08:58:18;101276.81;;;22.84;82.13
23016;BME280;11674;52.428;13.584;2022-08-21T09:00:53;101281.94;;;22.94;82.05
23016;BME280;11674;52.428;13.584;2022-08-21T09:03:26;101273.75;;;23.04;81.98
23016;BME280;11674;52.428;13.584;2022-08-21T09:06:04;101275.97;;;23.11;81.39
23016;BME280;11674;52.428;13.584;2022-08-21T09:08:50;101277.59;;;23.12;81.58
23016;BME280;11674;52.428;13.584;2022-08-21T09:11:50;101261.44;;;23.12;81.15
23016;BME280;11674;52.428;13.584;2022-08-21T09:14:32;101266.72;;;23.14;81.13
23016;BME280;11674;52.428;13.584;2022-08-21T09:25:42;101272.47;;;23.29;81.73
23016;BME280;11674;52.428;13.584;2022-08-21T09:28:17;101280.22;;;23.32;81.41
23016;BME280;11674;52.428;13.584;2022-08-21T09:30:50;101267.81;;;23.37;81.30
23016;BME280;11674;52.428;13.584;2022-08-21T09:33:25;101272.03;;;23.43;81.19
23016;BME280;11674;52.428;13.584;2022-08-21T09:35:58;101267.16;;;23.43;80.76
23016;BME280;11674;52.428;13.584;2022-08-21T09:38:33;101269.28;;;23.46;80.54
23016;BME280;11674;52.428;13.584;2022-08-21T09:41:08;101264.91;;;23.49;80.37
23016;BME280;11674;52.428;13.584;2022-08-21T09:43:40;101275.50;;;23.52;80.83
23016;BME280;11674;52.428;13.584;2022-08-21T09:46:21;101265.16;;;23.59;80.54
23016;BME280;11674;52.428;13.584;2022-08-21T09:48:56;101272.75;;;23.71;80.98
23016;BME280;11674;52.428;13.584;2022-08-21T09:51:32;101271.75;;;23.79;80.63
23016;BME280;11674;52.428;13.584;2022-08-21T09:56:52;101270.84;;;23.90;80.27
23016;BME280;11674;52.428;13.584;2022-08-21T09:59:30;101271.84;;;23.98;80.75
23016;BME280;11674;52.428;13.584;2022-08-21T10:02:31;101267.38;;;23.97;79.66
23016;BME280;11674;52.428;13.584;2022-08-21T10:05:14;101270.56;;;23.95;80.38
23016;BME280;11674;52.428;13.584;2022-08-21T10:07:47;101271.84;;;23.98;80.10
23016;BME280;11674;52.428;13.584;2022-08-21T10:10:30;101263.50;;;24.05;80.32
23016;BME280;11674;52.428;13.584;2022-08-21T10:13:30;101272.47;;;24.07;79.81
23016;BME280;11674;52.428;13.584;2022-08-21T10:24:24;101271.06;;;24.16;82.09
23016;BME280;11674;52.428;13.584;2022-08-21T10:27:22;101274.81;;;24.20;80.99
23016;BME280;11674;52.428;13.584;2022-08-21T10:35:27;101273.13;;;24.35;80.08
23016;BME280;11674;52.428;13.584;2022-08-21T10:41:00;101266.97;;;24.48;79.53
23016;BME280;11674;52.428;13.584;2022-08-21T10:46:37;101271.56;;;24.72;79.13
23016;BME280;11674;52.428;13.584;2022-08-21T10:52:09;101270.38;;;24.73;78.97
23016;BME280;11674;52.428;13.584;2022-08-21T10:57:33;101273.28;;;24.95;79.06
23016;BME280;11674;52.428;13.584;2022-08-21T11:00:12;101272.22;;;25.03;79.26
23016;BME280;11674;52.428;13.584;2022-08-21T11:02:51;101281.69;;;25.11;79.43
23016;BME280;11674;52.428;13.584;2022-08-21T11:05:38;101276.91;;;25.15;78.57
23016;BME280;11674;52.428;13.584;2022-08-21T11:08:15;101274.97;;;25.19;78.12
23016;BME280;11674;52.428;13.584;2022-08-21T11:10:57;101272.22;;;25.03;77.87
23016;BME280;11674;52.428;13.584;2022-08-21T11:19:40;101263.94;;;24.76;78.51
23016;BME280;11674;52.428;13.584;2022-08-21T11:22:21;101265.38;;;24.85;78.86
23016;BME280;11674;52.428;13.584;2022-08-21T11:27:52;101277.69;;;24.93;79.13
23016;BME280;11674;52.428;13.584;2022-08-21T11:30:33;101268.44;;;24.96;79.00
23016;BME280;11674;52.428;13.584;2022-08-21T11:35:59;101271.34;;;25.22;79.22
23016;BME280;11674;52.428;13.584;2022-08-21T11:38:40;101269.72;;;25.40;78.72
23016;BME280;11674;52.428;13.584;2022-08-21T11:41:25;101259.41;;;25.32;77.46
23016;BME280;11674;52.428;13.584;2022-08-21T11:52:34;101265.03;;;25.28;77.49
23016;BME280;11674;52.428;13.584;2022-08-21T11:58:09;101261.06;;;25.55;78.60
23016;BME280;11674;52.428;13.584;2022-08-21T12:03:27;101266.69;;;25.74;77.73
23016;BME280;11674;52.428;13.584;2022-08-21T12:14:11;101254.38;;;26.15;77.40
23016;BME280;11674;52.428;13.584;2022-08-21T12:16:47;101253.47;;;26.08;77.04
23016;BME280;11674;52.428;13.584;2022-08-21T12:22:07;101250.94;;;25.80;77.07
23016;BME280;11674;52.428;13.584;2022-08-21T12:27:29;101251.47;;;26.38;76.64
23016;BME280;11674;52.428;13.584;2022-08-21T12:30:06;101247.72;;;26.93;76.97
23016;BME280;11674;52.428;13.584;2022-08-21T12:35:40;101246.44;;;27.60;71.13
23016;BME280;11674;52.428;13.584;2022-08-21T12:38:26;101237.94;;;28.14;70.31
23016;BME280;11674;52.428;13.584;2022-08-21T12:41:05;101228.91;;;28.69;70.40
23016;BME280;11674;52.428;13.584;2022-08-21T12:43:47;101227.06;;;29.26;67.64
23016;BME280;11674;52.428;13.584;2022-08-21T12:46:25;101234.50;;;29.76;69.86
23016;BME280;11674;52.428;13.584;2022-08-21T12:49:03;101223.03;;;30.18;67.18
23016;BME280;11674;52.428;13.584;2022-08-21T12:51:51;101212.72;;;30.52;66.15
23016;BME280;11674;52.428;13.584;2022-08-21T12:54:29;101210.50;;;30.91;66.04
23016;BME280;11674;52.428;13.584;2022-08-21T12:57:04;101209.72;;;30.83;65.50
23016;BME280;11674;52.428;13.584;2022-08-21T12:59:31;101210.56;;;30.77;66.19
23016;BME280;11674;52.428;13.584;2022-08-21T13:02:12;101212.69;;;30.69;64.51
23016;BME280;11674;52.428;13.584;2022-08-21T13:04:47;101208.22;;;30.51;65.44
23016;BME280;11674;52.428;13.584;2022-08-21T13:07:31;101212.81;;;30.13;64.94
23016;BME280;11674;52.428;13.584;2022-08-21T13:10:16;101207.47;;;30.26;66.08
23016;BME280;11674;52.428;13.584;2022-08-21T13:12:50;101202.44;;;30.61;68.22
23016;BME280;11674;52.428;13.584;2022-08-21T13:15:29;101205.72;;;30.60;65.60
23016;BME280;11674;52.428;13.584;2022-08-21T13:18:04;101199.22;;;30.45;67.07
23016;BME280;11674;52.428;13.584;2022-08-21T13:20:40;101204.16;;;30.34;66.57
23016;BME280;11674;52.428;13.584;2022-08-21T13:23:29;101200.09;;;30.28;66.32
23016;BME280;11674;52.428;13.584;2022-08-21T13:26:12;101193.91;;;30.40;67.25
23016;BME280;11674;52.428;13.584;2022-08-21T13:28:43;101205.75;;;30.49;71.64
23016;BME280;11674;52.428;13.584;2022-08-21T13:31:22;101201.72;;;30.29;67.56
23016;BME280;11674;52.428;13.584;2022-08-21T13:33:56;101212.78;;;30.31;73.30
23016;BME280;11674;52.428;13.584;2022-08-21T13:36:32;101213.63;;;30.21;73.55
23016;BME280;11674;52.428;13.584;2022-08-21T13:39:04;101209.53;;;29.94;73.39
23016;BME280;11674;52.428;13.584;2022-08-21T13:41:40;101211.59;;;29.86;74.58
23016;BME280;11674;52.428;13.584;2022-08-21T13:44:22;101209.16;;;29.71;69.93
23016;BME280;11674;52.428;13.584;2022-08-21T13:46:55;101216.50;;;29.89;75.69
23016;BME280;11674;52.428;13.584;2022-08-21T13:49:34;101211.56;;;29.93;72.60
23016;BME280;11674;52.428;13.584;2022-08-21T13:54:59;101214.88;;;29.57;70.58
23016;BME280;11674;52.428;13.584;2022-08-21T13:57:33;101207.91;;;29.58;72.60
23016;BME280;11674;52.428;13.584;2022-08-21T14:00:25;101200.53;;;29.50;69.96
23016;BME280;11674;52.428;13.584;2022-08-21T14:03:06;101196.44;;;29.37;71.02
23016;BME280;11674;52.428;13.584;2022-08-21T14:05:45;101204.56;;;29.14;72.26
23016;BME280;11674;52.428;13.584;2022-08-21T14:08:36;101204.97;;;29.05;70.87
23016;BME280;11674;52.428;13.584;2022-08-21T14:11:11;101201.72;;;29.14;73.24
23016;BME280;11674;52.428;13.584;2022-08-21T14:13:47;101195.16;;;29.06;72.80
23016;BME280;11674;52.428;13.584;2022-08-21T14:16:22;101198.84;;;29.07;72.56
23016;BME280;11674;52.428;13.584;2022-08-21T14:19:19;101195.97;;;29.03;70.84
23016;BME280;11674;52.428;13.584;2022-08-21T14:21:52;101190.69;;;29.05;71.96
23016;BME280;11674;52.428;13.584;2022-08-21T14:24:27;101184.47;;;28.93;69.24
23016;BME280;11674;52.428;13.584;2022-08-21T14:27:05;101187.66;;;28.67;70.22
23016;BME280;11674;52.428;13.584;2022-08-21T14:29:39;101190.88;;;28.55;70.79
23016;BME280;11674;52.428;13.584;2022-08-21T14:32:22;101189.88;;;28.23;69.88
23016;BME280;11674;52.428;13.584;2022-08-21T14:34:56;101182.44;;;28.04;71.49
23016;BME280;11674;52.428;13.584;2022-08-21T14:37:28;101188.91;;;27.98;71.63
23016;BME280;11674;52.428;13.584;2022-08-21T14:40:00;101189.28;;;27.96;71.90
23016;BME280;11674;52.428;13.584;2022-08-21T14:42:32;101192.19;;;28.00;71.53